Thomas Murray

Jefe de ojeadores - West Ham United
17 Feb 2028
Jueves
Continuar

Personalidad

Adaptabilidad (4) Ambición (13) Controversia (16) Lealtad (6) Presión (12) Profesionalismo (14) Deportividad (2) Temperamento (9)

Perfil

Estilo de dirección Democrático
Licencia Continental Pro
Determinación 14
Gestión de personas 8
Motivación 9
Disciplina 7
Satisfacción laboral
100%
Fatiga
0%
Cargo Jefe de ojeadores
Salario 111.6K p/s
Contrato 14.03.2030

Rendimiento

Comportamiento Bueno
Efectividad del entrenamiento
55%
Desarrollo de jugadores
70%
Prevención de lesiones
40%
Implementación táctica
45%

Eventos recientes

Asistió a una reunión de captación ahora
Asistió a una reunión de captación ahora
Recomendó un objetivo de fichaje ahora
Asistió a una reunión de captación ahora
Recomendó un objetivo de fichaje ahora
Recomendó un objetivo de fichaje 7d atrás
Recomendó un objetivo de fichaje 7d atrás
Recomendó un objetivo de fichaje 7d atrás

Actualmente siguiendo

164
Jugador Club Estado Habilidad Confianza Observado Última observación Último voto
Adam Randell Bristol City Activo 131 / 142 72% 1 31.01.2028 Aprobar
Dom Ballard Leyton Orient Activo 128 / 131 72% 1 24.01.2028 Aprobar
Elia Boseggia Novara Activo 122 / 121 40% 1 17.01.2028 -
Sebastiano Desplanches Palermo Activo 137 / 141 40% 1 17.01.2028 -
Edoardo Motta Lazio Activo 131 / 143 40% 1 17.01.2028 -
Issa Diop Leyton Orient Perdido 139 / 131 72% 1 06.01.2028 -
Igoh Ogbu Porto Negociando 146 / 146 66% 1 01.01.2028 Aprobar
Mao Hosoya Everton Negociando 134 / 135 90% 1 01.01.2028 Aprobar
Assane Diao Lazio Activo 158 / 159 40% 6 31.12.2027 -
James Garner Everton Activo 158 / 160 40% 1 31.12.2027 -
Jorrel Hato Chelsea Activo 158 / 154 40% 3 30.08.2027 -
Harrison Armstrong Everton Activo 126 / 134 40% 1 30.08.2027 -
Leonardo Mendicino Bari Activo 113 / 129 40% 1 05.08.2027 -
Dayann Methalie Aston Villa Activo 137 / 148 40% 1 05.08.2027 -
Davide Bartesaghi AC Milan Activo 135 / 134 40% 2 04.08.2027 -
Lewis Miley Chelsea Activo 150 / 159 40% 3 04.08.2027 -
Christ Inao Oulaï Fiorentina Activo 133 / 141 40% 1 01.08.2027 -
Sascha Britschgi Padova Activo 128 / 129 40% 1 01.08.2027 -
Freddy Murillo Valencia Activo 118 / 125 40% 1 01.08.2027 -
Caleb Yirenkyi Coventry City Activo 136 / 153 40% 3 31.07.2027 -
Johan Manzambi Newcastle United Activo 141 / 149 40% 2 31.07.2027 -
Julián Bazán Philadelphia Union Activo 115 / 122 40% 1 31.07.2027 -
Christos Mouzakitis Hull City Activo 130 / 149 40% 2 29.07.2027 -
Martim Cunha Porto Activo 112 / 113 40% 2 29.07.2027 -
Riley Owen Trento Activo 105 / 119 40% 3 29.07.2027 -
Ernie Weaver AFC Wimbledon Activo 118 / 120 40% 2 28.07.2027 -
Matías Gómez Granada Activo 110 / 130 40% 2 28.07.2027 -
Jofre Torrents Ajax Activo 126 / 128 40% 2 26.07.2027 -
Juan Giménez Celta Activo 119 / 125 40% 1 26.07.2027 -
Rodrigo Gomes Wolverhampton Activo 139 / 152 40% 12 22.07.2027 -
Juanlu Bournemouth Activo 157 / 151 40% 6 22.07.2027 -
Yehor Yarmoliuk Brentford Activo 159 / 161 40% 9 22.07.2027 -
Xavi Simons Tottenham Activo 166 / 149 40% 9 05.07.2027 -
Yankuba Minteh Brighton Activo 145 / 145 40% 8 05.07.2027 -
Jesús Rodríguez Como Activo 146 / 152 40% 2 21.06.2027 -
Yeremy Pino Crystal Palace Activo 150 / 144 40% 8 02.06.2027 -
Toby Collyer West Bromwich Albion Activo 124 / 141 40% 2 02.06.2027 -
Scott Twine Bristol City Perdido 125 / 131 69% 1 02.06.2027 Aprobar
Callum Hudson-Odoi Nottingham Forest Activo 158 / 142 40% 3 31.05.2027 -
Léo Scienza Southampton Activo 146 / 141 40% 4 31.05.2027 -
Kenan Yıldız Juventus Activo 165 / 168 40% 4 31.05.2027 -
Shea Charles Southampton Activo 137 / 140 40% 6 29.05.2027 -
Malick Fofana Sunderland Activo 150 / 137 40% 5 29.05.2027 -
Ilyas Ansah Hull City Activo 135 / 134 40% 7 28.05.2027 -
Jacques Ekomié Wrexham Activo 121 / 125 40% 3 27.05.2027 -
Adam Wharton Crystal Palace Activo 160 / 144 40% 4 27.05.2027 -
Othmane Maamma Watford Activo 120 / 121 40% 3 25.05.2027 -
Tom Fellows Southampton Activo 139 / 134 40% 5 25.05.2027 -
Tommy Conway Middlesbrough Activo 131 / 122 40% 6 24.05.2027 -
Maximo Ingravidi Colón Activo 108 / 108 40% 1 24.05.2027 -
Markus Jensen Nacional Activo 103 / 119 40% 1 24.05.2027 -
Borna Knezović Casarano Activo 100 / 104 40% 1 24.05.2027 -
Gonçalo Oliveira Benfica Activo 109 / 110 40% 2 22.05.2027 -
Matías Soulé AS Roma Activo 158 / 163 40% 10 20.05.2027 -
Carlos Alcaraz Everton Activo 142 / 143 40% 4 19.05.2027 -
Amad Manchester United Activo 152 / 158 40% 6 18.05.2027 -
Francisco Conceição Juventus Activo 152 / 161 40% 5 16.05.2027 -
Nicolas Verkooijen PSV Activo 113 / 121 40% 2 15.05.2027 -
Francesco Pio Esposito Inter Activo 146 / 146 40% 1 15.05.2027 -
Stefanos Tzimas Brighton Activo 140 / 136 40% 1 15.05.2027 -
Jack McGlynn Stoke City Activo 125 / 131 40% 3 11.05.2027 -
Antoni Milambo Brentford Activo 136 / 152 40% 1 11.05.2027 -
Ognjen Bondžulić Mladost Lucani Activo 97 / 106 40% 1 10.05.2027 -
Tomáš Rigo Stoke City Activo 136 / 127 40% 3 07.05.2027 -
Valentin Atangana Al-Ahli Activo 138 / 141 40% 3 05.05.2027 -
Isaac Price West Bromwich Albion Activo 120 / 132 40% 2 03.05.2027 -
Kevin Fulham Activo 149 / 156 40% 4 02.05.2027 -
Morgan Rogers Chelsea Activo 162 / 158 40% 15 01.05.2027 -
Darryl Bakola Padova Activo 103 / 109 40% 3 27.04.2027 -
Hugo Ekitiké Liverpool Activo 161 / 165 40% 2 23.04.2027 -
Miloš Kerkez Liverpool Activo 153 / 159 40% 5 22.04.2027 -
Andre Brooks Sheffield United Activo 120 / 122 40% 2 21.04.2027 -
Tiago Freitas Benfica Activo 103 / 111 40% 2 21.04.2027 -
David Ozoh Derby County Activo 118 / 120 40% 1 21.04.2027 -
Aaron Hickey Brentford Activo 149 / 149 40% 1 20.04.2027 -
Agustín Ruberto River Plate Activo 124 / 119 40% 1 20.04.2027 -
Thomas Waddingham Portsmouth Activo 108 / 115 40% 1 20.04.2027 -
Dylan Lawlor Cardiff City Activo 108 / 123 40% 1 14.04.2027 -
Joe Gelhardt Hull City Activo 129 / 136 40% 2 13.04.2027 -
Mohamed Belloumi Hull City Activo 137 / 134 40% 7 11.04.2027 Observar
Gonzalo Fulham Activo 150 / 154 40% 6 09.04.2027 -
Josh King Chelsea Activo 142 / 142 40% 2 08.04.2027 -
James Dornelly Peterborough United Activo 95 / 98 40% 1 06.04.2027 -
Kwadwo Baah Watford Activo 137 / 123 40% 1 04.04.2027 -
Jack Hinshelwood Brighton Activo 149 / 138 40% 2 02.04.2027 -
Keagan Phiri Platinum Stars Activo 105 / 95 40% 1 02.04.2027 -
Ryan Gravenberch Liverpool Activo 166 / 154 40% 3 31.03.2027 -
Leo Castledine Middlesbrough Activo 130 / 123 40% 2 24.03.2027 -
Bradley Barcola Liverpool Activo 159 / 165 40% 11 22.03.2027 -
Kristoffer Lund Birmingham Activo 120 / 128 40% 1 20.03.2027 -
Hlompho Lorch Ajax Cape Town Activo 100 / 110 40% 2 18.03.2027 -
Matvey Kislyak CSKA Moscow Activo 127 / 145 40% 1 18.03.2027 -
Tino Livramento Newcastle United Activo 156 / 159 40% 3 15.03.2027 -
Abdul Fatawu Leicester City Activo 131 / 129 40% 1 15.03.2027 -
Hélio Varela Maccabi Tel Aviv Activo 131 / 127 40% 2 13.03.2027 -
Noah Sadiki Sunderland Activo 137 / 140 40% 1 13.03.2027 -
Cemran Dansin Orlando Pirates Activo 113 / 120 40% 2 12.03.2027 -
Curtis Jones Inter Activo 161 / 160 40% 1 03.01.2027 -
Jan Paul van Hecke Tottenham Activo 156 / 166 40% 1 03.01.2027 -
Quinten Timber Crystal Palace Activo 155 / 156 40% 1 03.01.2027 -
Mason Mount Manchester United Activo 154 / 149 40% 4 31.12.2026 -
Brais Méndez Columbus Crew Activo 152 / 152 40% 6 30.12.2026 -
Nicolas Jackson Aston Villa Activo 146 / 153 40% 4 30.12.2026 -
Kiernan Dewsbury-Hall Everton Activo 159 / 137 40% 4 29.12.2026 -
Carlos Vicente Birmingham Activo 138 / 135 40% 9 28.12.2026 Observar
Josep Martínez Inter Activo 143 / 147 40% 3 28.12.2026 -
David Raya Arsenal Activo 154 / 161 40% 3 28.12.2026 -
Adrien Truffert Bournemouth Activo 155 / 155 40% 3 27.12.2026 -
Hany Mukhtar Spezia Activo 141 / 129 40% 5 27.12.2026 -
Cody Gakpo Liverpool Activo 154 / 165 40% 11 26.12.2026 -
Gabriel Martinelli Brighton Activo 166 / 160 40% 11 26.12.2026 -
Matt O'Riley Brighton Activo 148 / 136 40% 4 26.12.2026 -
Harry Wilson Leeds United Activo 148 / 137 40% 3 26.12.2026 -
Kai Havertz Arsenal Activo 167 / 161 40% 8 23.12.2026 -
Jérémy Doku Manchester City Activo 175 / 157 40% 6 22.12.2026 -
Martin Ødegaard Arsenal Activo 186 / 183 40% 7 21.12.2026 -
Iliman N'Diaye Everton Activo 157 / 146 40% 8 20.12.2026 -
Sandro Tonali Tottenham Activo 180 / 174 40% 4 17.12.2026 -
Senne Lammens Manchester United Activo 142 / 146 40% 4 15.12.2026 -
Arijanet Murić Sassuolo Activo 136 / 145 40% 2 15.12.2026 -
Nico González Newcastle United Activo 162 / 170 40% 6 13.12.2026 -
Federico Chiesa Liverpool Activo 149 / 147 40% 2 13.12.2026 -
Giacomo Raspadori Atalanta Activo 150 / 142 40% 2 13.12.2026 -
Alexis Mac Allister Liverpool Activo 155 / 160 40% 3 10.12.2026 -
Bryan Mbeumo Manchester United Activo 165 / 163 40% 3 10.12.2026 -
Dušan Vlahović Juventus Activo 167 / 160 40% 1 10.12.2026 -
Martín Zubimendi Arsenal Activo 161 / 155 40% 1 04.12.2026 -
Gabriel Jesus Barcelona Activo 155 / 154 40% 5 01.12.2026 -
Marcus Rashford Manchester United Activo 166 / 149 40% 1 01.12.2026 -
Robin Roefs Sunderland Activo 144 / 150 40% 4 30.11.2026 -
Dean Henderson Crystal Palace Activo 150 / 155 40% 3 30.11.2026 -
Mohammed Kudus Tottenham Activo 153 / 153 40% 4 28.11.2026 -
Thiago Brentford Activo 140 / 153 40% 1 28.11.2026 -
Declan Rice Arsenal Activo 181 / 187 40% 4 25.11.2026 -
Alexey Miranchuk St. Gallen Activo 138 / 146 40% 3 24.11.2026 -
Antoine Semenyo Manchester City Activo 159 / 157 40% 2 15.11.2026 -
Matheus Cunha Manchester United Activo 154 / 147 40% 3 09.11.2026 -
Victor Osimhen Manchester United Activo 152 / 165 40% 3 07.11.2026 -
Leroy Sané Galatasaray Activo 155 / 161 40% 2 07.11.2026 -
Vinícius Júnior Arsenal Activo 171 / 167 40% 2 06.11.2026 -
Phil Foden Manchester City Activo 182 / 176 40% 3 02.11.2026 -
Breel Embolo Atlanta United FC Activo 129 / 135 40% 4 01.11.2026 -
Dominic Solanke Tottenham Activo 143 / 146 40% 2 31.10.2026 -
Jadon Sancho Manchester United Activo 142 / 142 40% 1 31.10.2026 -
Georginio Rutter Brighton Activo 140 / 155 40% 1 29.10.2026 -
Cole Palmer Chelsea Activo 181 / 172 40% 2 27.10.2026 -
Luis Suárez Chelsea Activo 145 / 148 40% 3 23.10.2026 -
Predrag Rajković Racing Genk Activo 141 / 141 40% 1 22.10.2026 -
Amine Adli Bournemouth Activo 143 / 150 40% 1 19.10.2026 -
Reece James Chelsea Activo 175 / 174 40% 4 16.10.2026 -
Ángel Correa River Plate Activo 141 / 129 40% 3 15.10.2026 -
Ebere Eze Arsenal Activo 149 / 161 40% 1 12.10.2026 -
Alexander Isak Liverpool Activo 166 / 167 40% 5 10.10.2026 -
James Trafford Leeds United Activo 146 / 145 40% 1 08.10.2026 -
Jean-Philippe Mateta Crystal Palace Activo 145 / 149 40% 2 03.10.2026 -
Barış Alper Yılmaz Galatasaray Activo 137 / 139 40% 1 03.10.2026 -
James Maddison Tottenham Activo 160 / 159 40% 1 03.10.2026 -
Mauro Arambarri River Plate Activo 155 / 167 40% 1 02.10.2026 -
Oussama Idrissi Pachuca Activo 143 / 145 40% 1 02.10.2026 -
Orbelín Pineda Monterrey Activo 139 / 138 40% 1 29.09.2026 -
Allan Saint-Maximin Charlotte Football Club Activo 130 / 144 40% 2 21.09.2026 -
Sergio Reguilón Inter Miami CF Activo 143 / 124 40% 1 17.09.2026 -
Bruno Guimarães Arsenal Activo 174 / 160 40% 3 16.09.2026 -
João Pedro Chelsea Activo 142 / 144 40% 1 09.09.2026 -